Time;durP1;ratioP1;P1;durP2;ratioP2;P2;SDS_P1;SDS_P2;PMS_P1;PMS_P2;Temp;Humidity;BMP_temperature;BMP_pressure;BME280_temperature;BME280_humidity;BME280_pressure;Samples;Min_cycle;Max_cycle;Signal;HPM_P1;HPM_P2
2021/12/21 00:00:43;;;;;;;15.10;9.40;;;2.00;69.30;;;;;;5027382;28;20037;-46
2021/12/21 00:03:10;;;;;;;14.95;9.60;;;1.90;69.30;;;;;;5033229;28;20553;-48
2021/12/21 00:05:38;;;;;;;15.65;9.98;;;2.00;70.00;;;;;;5009376;28;20390;-48
2021/12/21 00:08:09;;;;;;;14.73;9.52;;;1.90;69.30;;;;;;5021848;28;20095;-50
2021/12/21 00:10:37;;;;;;;17.45;9.75;;;1.90;69.30;;;;;;5019893;28;20108;-50
2021/12/21 00:18:20;;;;;;;11.77;8.32;;;1.90;69.20;;;;;;5014892;28;20046;-49
2021/12/21 00:20:56;;;;;;;16.90;10.02;;;1.90;69.10;;;;;;5021495;28;20038;-47
2021/12/21 00:26:13;;;;;;;13.77;9.02;;;1.80;69.00;;;;;;5007077;28;20046;-46
2021/12/21 00:31:19;;;;;;;12.60;8.50;;;1.80;69.00;;;;;;5023649;28;20041;-46
2021/12/21 00:33:47;;;;;;;12.20;8.43;;;1.80;69.00;;;;;;5020048;28;20111;-46
2021/12/21 00:36:20;;;;;;;13.35;8.65;;;1.70;68.90;;;;;;5022958;28;20042;-46
2021/12/21 00:38:50;;;;;;;10.65;7.43;;;1.70;69.60;;;;;;5032297;28;20148;-46
2021/12/21 00:41:18;;;;;;;11.40;8.05;;;1.70;69.10;;;;;;5015521;28;20038;-46
2021/12/21 00:43:45;;;;;;;10.88;7.78;;;1.70;69.70;;;;;;5022104;28;20030;-46
2021/12/21 00:46:13;;;;;;;12.38;9.02;;;1.70;69.00;;;;;;5029158;28;20131;-46
2021/12/21 00:48:48;;;;;;;9.57;6.93;;;1.60;69.00;;;;;;5017345;28;20046;-46
2021/12/21 00:51:16;;;;;;;12.07;7.13;;;1.70;69.00;;;;;;5008664;28;20101;-48
2021/12/21 00:53:43;;;;;;;14.20;9.18;;;1.70;69.10;;;;;;5014268;28;20123;-50
2021/12/21 00:56:16;;;;;;;10.43;7.18;;;1.70;69.00;;;;;;5005179;28;20528;-47
2021/12/21 00:58:43;;;;;;;11.27;6.90;;;1.60;69.00;;;;;;5033039;28;20049;-48
2021/12/21 01:01:10;;;;;;;10.40;7.28;;;1.60;69.00;;;;;;5016902;28;20641;-46
2021/12/21 01:03:45;;;;;;;9.48;6.47;;;1.60;69.00;;;;;;5025589;28;20042;-46
2021/12/21 01:06:27;;;;;;;10.57;6.70;;;1.60;68.90;;;;;;5017985;28;20061;-47
2021/12/21 01:09:06;;;;;;;10.10;6.72;;;1.60;69.00;;;;;;5011700;28;20504;-46
2021/12/21 01:11:44;;;;;;;9.60;6.53;;;1.60;69.00;;;;;;5015375;28;20046;-47
2021/12/21 01:17:47;;;;;;;8.68;6.63;;;1.50;69.00;;;;;;5031036;28;20041;-47
2021/12/21 01:19:42;;;;;;;9.23;6.28;;;1.50;69.00;;;;;;5006418;28;20063;-50
2021/12/21 01:32:41;;;;;;;8.88;6.00;;;1.40;68.90;;;;;;5021773;28;20050;-46
2021/12/21 01:35:53;;;;;;;6.20;5.15;;;1.40;68.80;;;;;;5016933;28;20508;-55
2021/12/21 01:40:35;;;;;;;8.48;5.47;;;1.40;68.80;;;;;;5021775;28;20064;-46
2021/12/21 01:43:20;;;;;;;7.35;5.78;;;1.40;68.90;;;;;;5031781;28;20041;-47
2021/12/21 01:51:19;;;;;;;9.00;4.82;;;1.30;68.80;;;;;;5019936;28;20046;-46
2021/12/21 01:53:47;;;;;;;8.70;5.05;;;1.30;68.80;;;;;;5013581;28;20458;-46
2021/12/21 01:56:14;;;;;;;7.45;5.18;;;1.30;68.90;;;;;;5012425;28;20045;-46
2021/12/21 01:58:42;;;;;;;10.05;5.22;;;1.30;68.80;;;;;;5020027;28;20081;-50
2021/12/21 02:01:15;;;;;;;9.05;4.93;;;1.30;68.80;;;;;;5026581;28;20041;-50
2021/12/21 02:03:47;;;;;;;8.88;5.35;;;1.30;68.80;;;;;;5023900;28;20035;-48
2021/12/21 02:06:22;;;;;;;;;;;1.20;68.80;;;;;;5004081;28;20050;-50
2021/12/21 02:08:49;;;;;;;7.13;4.35;;;1.30;68.50;;;;;;5013372;28;19925;-49
2021/12/21 02:11:16;;;;;;;7.65;5.00;;;1.20;68.70;;;;;;5019328;28;20045;-50
2021/12/21 02:13:49;;;;;;;6.70;4.72;;;1.20;68.60;;;;;;5010082;28;20103;-48
2021/12/21 02:16:32;;;;;;;5.50;4.10;;;1.20;68.70;;;;;;5001594;28;20041;-47
2021/12/21 02:19:16;;;;;;;6.95;4.55;;;1.20;68.60;;;;;;5021974;28;20659;-45
2021/12/21 02:21:51;;;;;;;5.60;4.10;;;1.20;68.80;;;;;;5029078;28;20054;-50
2021/12/21 02:24:23;;;;;;;8.00;4.40;;;1.10;68.70;;;;;;5014050;28;20042;-49
2021/12/21 02:29:37;;;;;;;7.63;4.80;;;1.10;68.70;;;;;;4993347;28;20038;-47
2021/12/21 02:32:08;;;;;;;7.90;4.75;;;1.10;68.70;;;;;;5009305;28;20042;-46
2021/12/21 02:34:38;;;;;;;9.32;5.68;;;1.10;68.70;;;;;;5012646;28;20567;-48
2021/12/21 02:37:05;;;;;;;6.22;5.00;;;1.10;68.80;;;;;;5018691;28;20097;-50
2021/12/21 02:39:31;;;;;;;8.50;5.45;;;1.10;68.80;;;;;;5030216;28;20041;-47
2021/12/21 02:41:58;;;;;;;7.80;5.32;;;1.10;68.80;;;;;;5016557;28;20042;-47
2021/12/21 02:44:25;;;;;;;7.15;4.55;;;1.00;68.80;;;;;;5008538;28;20056;-50
2021/12/21 02:46:52;;;;;;;7.32;6.32;;;1.00;68.80;;;;;;5020078;28;20064;-49
2021/12/21 02:49:18;;;;;;;10.25;5.25;;;1.00;68.80;;;;;;5010342;28;20046;-49
2021/12/21 02:51:47;;;;;;;10.30;5.60;;;1.00;68.70;;;;;;4970627;28;1049996;-47
2021/12/21 02:54:16;;;;;;;5.75;4.65;;;1.00;68.70;;;;;;5012248;28;20640;-46
2021/12/21 02:56:43;;;;;;;8.30;5.22;;;1.00;68.70;;;;;;5020769;28;20508;-50
2021/12/21 02:59:11;;;;;;;7.53;4.93;;;1.00;68.70;;;;;;5030620;28;20038;-49
2021/12/21 03:01:39;;;;;;;7.13;4.88;;;1.00;68.70;;;;;;5021161;28;20539;-49
2021/12/21 03:04:08;;;;;;;8.48;5.10;;;1.00;68.80;;;;;;4994222;28;20046;-49
2021/12/21 03:09:12;;;;;;;6.20;4.43;;;1.00;68.70;;;;;;5026074;28;20041;-46
2021/12/21 03:11:50;;;;;;;6.95;5.03;;;0.90;68.70;;;;;;4990002;28;20056;-47
2021/12/21 03:14:17;;;;;;;5.95;4.22;;;0.90;68.70;;;;;;4996460;28;20517;-46
2021/12/21 03:16:43;;;;;;;9.40;4.50;;;0.90;68.60;;;;;;5019614;28;20045;-47
2021/12/21 03:19:11;;;;;;;7.72;4.43;;;0.90;68.60;;;;;;5021630;28;20053;-48
2021/12/21 03:21:38;;;;;;;7.65;3.85;;;0.90;68.60;;;;;;5013985;28;20080;-49
2021/12/21 03:24:06;;;;;;;6.65;4.80;;;0.90;68.60;;;;;;5016068;28;20038;-47
2021/12/21 03:26:32;;;;;;;6.43;4.55;;;0.90;69.20;;;;;;5009962;28;20068;-49
2021/12/21 03:29:01;;;;;;;7.57;4.88;;;0.80;68.50;;;;;;5020935;28;20044;-46
2021/12/21 03:31:32;;;;;;;6.20;4.63;;;0.80;68.50;;;;;;5016181;28;20124;-47
2021/12/21 03:33:59;;;;;;;7.13;4.15;;;0.90;68.60;;;;;;5021926;28;20091;-46
2021/12/21 03:36:28;;;;;;;11.13;4.93;;;0.80;68.50;;;;;;5019698;28;20125;-46
2021/12/21 03:39:10;;;;;;;6.78;4.68;;;0.80;68.50;;;;;;5030206;28;20104;-46
2021/12/21 03:41:39;;;;;;;5.78;4.68;;;0.80;68.50;;;;;;5012256;28;20100;-48
2021/12/21 03:44:09;;;;;;;8.80;4.15;;;0.80;68.40;;;;;;5018418;28;20092;-45
2021/12/21 03:46:43;;;;;;;5.57;3.95;;;0.80;68.50;;;;;;5028396;28;20546;-50
2021/12/21 03:49:46;;;;;;;8.10;4.20;;;0.80;68.50;;;;;;5011308;28;20092;-46
2021/12/21 03:51:58;;;;;;;7.65;4.00;;;0.80;68.50;;;;;;5013117;28;20054;-49
2021/12/21 03:54:25;;;;;;;8.48;4.28;;;0.70;68.40;;;;;;5020728;28;20084;-47
2021/12/21 03:56:54;;;;;;;6.25;3.75;;;0.70;68.40;;;;;;5028659;28;20509;-46
2021/12/21 03:59:24;;;;;;;7.28;4.05;;;0.70;68.40;;;;;;5014359;28;20043;-47
2021/12/21 04:01:51;;;;;;;5.75;3.85;;;0.70;68.40;;;;;;5020474;28;20460;-50
2021/12/21 04:04:18;;;;;;;6.07;4.07;;;0.70;68.40;;;;;;5028532;28;20037;-50
2021/12/21 04:06:46;;;;;;;5.60;4.32;;;0.70;68.40;;;;;;5010622;28;20041;-46
2021/12/21 04:09:14;;;;;;;6.82;4.45;;;0.70;68.40;;;;;;5023366;28;20096;-46
2021/12/21 04:11:41;;;;;;;5.15;3.63;;;0.60;68.40;;;;;;5015256;28;20053;-49
2021/12/21 04:14:09;;;;;;;8.60;3.90;;;0.60;68.30;;;;;;5008492;28;20099;-48
2021/12/21 04:16:36;;;;;;;5.57;3.85;;;0.60;68.30;;;;;;5010118;28;20050;-49
2021/12/21 04:19:04;;;;;;;8.90;4.07;;;0.60;68.30;;;;;;5012386;28;20112;-50
2021/12/21 04:21:34;;;;;;;8.43;5.15;;;0.60;68.30;;;;;;5009817;28;20136;-46
2021/12/21 04:24:01;;;;;;;5.28;3.47;;;0.60;68.30;;;;;;5008748;28;20046;-49
2021/12/21 04:26:30;;;;;;;4.78;3.92;;;0.60;68.30;;;;;;5006330;28;20038;-50
2021/12/21 04:28:56;;;;;;;5.68;3.47;;;0.60;68.30;;;;;;5007967;28;20088;-47
2021/12/21 04:31:23;;;;;;;7.25;3.40;;;0.60;68.30;;;;;;5017561;28;20052;-47
2021/12/21 04:33:50;;;;;;;8.23;4.50;;;0.60;68.30;;;;;;5023492;28;20123;-46
2021/12/21 04:36:17;;;;;;;6.72;3.30;;;0.50;68.30;;;;;;5016782;28;20100;-46
2021/12/21 04:38:49;;;;;;;8.23;4.05;;;0.50;68.30;;;;;;5013826;28;20524;-49
2021/12/21 04:41:23;;;;;;;7.25;3.58;;;0.50;68.30;;;;;;5023354;28;20065;-46
2021/12/21 04:43:55;;;;;;;4.20;3.05;;;0.50;68.30;;;;;;5032922;28;20034;-46
2021/12/21 04:46:23;;;;;;;5.97;3.42;;;0.50;68.20;;;;;;5008339;28;20041;-46
2021/12/21 04:48:51;;;;;;;5.75;3.55;;;0.50;68.30;;;;;;5019255;28;20038;-47
2021/12/21 04:51:18;;;;;;;5.65;3.75;;;0.50;68.30;;;;;;5013310;28;20104;-50
2021/12/21 04:53:45;;;;;;;9.63;3.38;;;0.40;68.20;;;;;;5013854;28;20045;-48
2021/12/21 04:56:12;;;;;;;5.38;3.03;;;0.50;68.30;;;;;;5016743;28;20139;-47
2021/12/21 04:58:39;;;;;;;5.72;3.38;;;0.40;68.20;;;;;;5020312;28;20073;-48
2021/12/21 05:01:06;;;;;;;6.32;3.40;;;0.40;68.20;;;;;;5028270;28;20045;-47
2021/12/21 05:03:33;;;;;;;5.63;4.05;;;0.40;68.20;;;;;;5026355;28;20040;-47
2021/12/21 05:06:00;;;;;;;5.72;3.80;;;0.40;68.20;;;;;;5014474;28;20030;-47
2021/12/21 05:08:32;;;;;;;6.03;3.95;;;0.40;68.20;;;;;;5022454;28;20049;-48
2021/12/21 05:11:03;;;;;;;6.97;4.47;;;0.40;68.30;;;;;;5015508;28;20169;-47
2021/12/21 05:13:33;;;;;;;5.97;3.70;;;0.40;68.90;;;;;;5009577;28;20072;-50
2021/12/21 05:16:00;;;;;;;6.25;3.42;;;0.40;68.30;;;;;;5022127;28;20053;-46
2021/12/21 05:18:27;;;;;;;4.78;3.25;;;0.40;68.30;;;;;;5024031;28;20049;-51
2021/12/21 05:20:55;;;;;;;5.32;2.95;;;0.40;68.30;;;;;;5031426;28;20048;-48
2021/12/21 05:23:22;;;;;;;6.18;4.05;;;0.30;68.30;;;;;;5014259;28;20493;-49
2021/12/21 05:25:49;;;;;;;6.95;3.95;;;0.30;68.30;;;;;;5022522;28;20060;-46
2021/12/21 05:28:16;;;;;;;6.20;4.82;;;0.40;68.30;;;;;;5006999;28;20039;-48
2021/12/21 05:30:44;;;;;;;5.90;3.42;;;0.30;68.20;;;;;;5017060;28;20103;-49
2021/12/21 05:33:11;;;;;;;7.20;4.00;;;0.30;68.10;;;;;;5015751;28;20065;-51
2021/12/21 05:35:38;;;;;;;4.88;3.45;;;0.30;68.20;;;;;;5021307;28;20390;-46
2021/12/21 05:38:08;;;;;;;5.40;3.72;;;0.30;68.30;;;;;;5028347;28;20107;-49
2021/12/21 05:40:39;;;;;;;5.97;3.80;;;0.30;68.30;;;;;;5030903;28;20409;-48
2021/12/21 05:43:07;;;;;;;5.47;3.35;;;0.30;68.30;;;;;;5016625;28;20050;-46
2021/12/21 05:45:34;;;;;;;8.73;4.13;;;0.30;68.20;;;;;;5019334;28;20088;-47
2021/12/21 05:48:01;;;;;;;6.53;3.47;;;0.30;68.20;;;;;;5013190;28;20586;-51
2021/12/21 05:50:28;;;;;;;6.78;3.85;;;0.20;68.20;;;;;;5008071;28;20045;-47
2021/12/21 05:52:55;;;;;;;4.60;3.47;;;0.20;68.20;;;;;;5013462;28;20050;-47
2021/12/21 05:55:25;;;;;;;7.95;4.05;;;0.20;68.20;;;;;;5021572;28;20049;-46
2021/12/21 05:57:52;;;;;;;6.88;3.92;;;0.20;68.20;;;;;;5030584;28;20049;-47
2021/12/21 06:00:25;;;;;;;5.53;3.75;;;0.20;68.20;;;;;;5012993;28;20099;-50
2021/12/21 06:02:52;;;;;;;9.88;3.80;;;0.20;68.10;;;;;;5023000;28;20377;-49
2021/12/21 06:05:19;;;;;;;6.82;4.30;;;0.20;68.20;;;;;;5027468;28;20034;-47
2021/12/21 06:07:49;;;;;;;7.78;3.80;;;0.20;68.20;;;;;;5012641;28;20060;-46
2021/12/21 06:10:22;;;;;;;5.07;3.47;;;0.20;68.20;;;;;;5027254;28;20065;-48
2021/12/21 06:26:43;;;;;;;6.85;3.90;;;0.10;68.10;;;;;;5009489;28;20042;-48
2021/12/21 06:29:10;;;;;;;7.15;4.22;;;0.10;68.10;;;;;;5010570;28;20069;-50
2021/12/21 06:31:40;;;;;;;8.32;3.58;;;0.20;68.10;;;;;;5008549;28;20041;-47
2021/12/21 06:34:07;;;;;;;6.03;4.07;;;0.10;68.10;;;;;;5010618;28;20099;-47
2021/12/21 06:36:34;;;;;;;6.53;4.05;;;0.10;68.20;;;;;;4991691;28;20054;-50
2021/12/21 06:39:01;;;;;;;5.32;2.95;;;0.10;68.20;;;;;;5012736;28;20487;-46
2021/12/21 06:41:28;;;;;;;4.97;3.63;;;0.10;68.10;;;;;;5020816;28;20046;-48
2021/12/21 06:43:55;;;;;;;4.18;3.40;;;0.10;68.10;;;;;;5031100;28;20045;-47
2021/12/21 06:51:51;;;;;;;8.20;4.47;;;0.00;68.10;;;;;;5006344;28;20029;-48
2021/12/21 06:54:18;;;;;;;6.95;3.95;;;0.00;68.00;;;;;;5031708;28;20398;-47
2021/12/21 06:56:45;;;;;;;7.03;3.67;;;0.00;68.00;;;;;;5023747;28;20096;-50
2021/12/21 06:59:12;;;;;;;7.28;4.50;;;0.00;68.00;;;;;;5014107;28;20080;-47
2021/12/21 07:01:40;;;;;;;8.65;4.68;;;0.00;68.00;;;;;;5013553;28;20386;-49
2021/12/21 07:04:08;;;;;;;5.53;4.25;;;0.00;68.00;;;;;;5017904;28;20038;-47
2021/12/21 07:06:36;;;;;;;7.57;4.18;;;0.00;68.00;;;;;;5010464;28;20100;-46
2021/12/21 07:09:11;;;;;;;6.07;4.30;;;0.00;68.00;;;;;;5019258;28;20033;-46
2021/12/21 07:11:45;;;;;;;9.38;4.57;;;0.00;68.00;;;;;;5006806;28;20794;-50
2021/12/21 07:19:45;;;;;;;7.28;5.07;;;-0.10;68.00;;;;;;5007380;28;20041;-47
2021/12/21 07:22:12;;;;;;;9.88;4.63;;;-0.10;68.00;;;;;;5008567;28;20070;-50
2021/12/21 07:24:38;;;;;;;7.45;5.60;;;0.00;68.10;;;;;;4992203;28;20108;-47
2021/12/21 07:27:06;;;;;;;8.10;5.70;;;-0.10;68.00;;;;;;5016537;28;20049;-48
2021/12/21 07:29:33;;;;;;;7.95;5.03;;;-0.10;68.00;;;;;;5009478;28;20041;-47
2021/12/21 07:32:00;;;;;;;10.70;5.43;;;-0.10;68.00;;;;;;5009670;28;20572;-47
2021/12/21 07:34:26;;;;;;;7.03;5.00;;;-0.10;68.00;;;;;;5008325;28;20103;-51
2021/12/21 07:36:53;;;;;;;8.65;5.45;;;-0.10;68.00;;;;;;5010163;28;20516;-49
2021/12/21 07:39:39;;;;;;;9.13;4.85;;;-0.10;68.10;;;;;;5021164;28;20049;-48
2021/12/21 07:42:23;;;;;;;9.68;5.15;;;-0.10;67.90;;;;;;5010358;28;20037;-48
2021/12/21 07:44:50;;;;;;;10.23;5.97;;;-0.10;68.00;;;;;;4985631;28;20100;-48
2021/12/21 07:47:17;;;;;;;7.35;5.70;;;-0.10;68.00;;;;;;5002960;28;20037;-48
2021/12/21 07:49:44;;;;;;;10.70;5.22;;;-0.10;68.10;;;;;;4995297;28;20045;-47
2021/12/21 07:52:12;;;;;;;9.40;5.85;;;-0.10;68.10;;;;;;5003864;28;20103;-50
2021/12/21 07:54:39;;;;;;;8.35;5.32;;;-0.10;68.10;;;;;;5006383;28;20037;-47
2021/12/21 07:57:09;;;;;;;7.43;5.30;;;-0.10;68.20;;;;;;5006306;28;20497;-48
2021/12/21 07:59:37;;;;;;;9.55;5.82;;;-0.10;68.20;;;;;;4998013;28;20112;-47
2021/12/21 08:02:11;;;;;;;8.52;5.15;;;-0.10;68.30;;;;;;5004348;28;20129;-50
2021/12/21 08:04:39;;;;;;;10.98;6.18;;;-0.10;68.30;;;;;;5008950;28;20037;-47
2021/12/21 08:07:11;;;;;;;10.82;5.50;;;-0.10;68.30;;;;;;5005703;28;20065;-47
2021/12/21 08:09:42;;;;;;;;;;;-0.10;68.30;;;;;;4998609;28;20034;-49
2021/12/21 08:12:18;;;;;;;7.10;4.65;;;0.00;68.10;;;;;;5002952;28;19933;-49
2021/12/21 08:14:50;;;;;;;7.50;4.80;;;0.00;68.20;;;;;;5002762;28;20400;-46
2021/12/21 08:17:17;;;;;;;;;;;0.00;68.20;;;;;;5010570;28;20041;-48
2021/12/21 08:19:46;;;;;;;10.00;4.70;;;0.00;68.10;;;;;;5000161;28;19949;-47
2021/12/21 08:22:13;;;;;;;5.90;4.75;;;0.00;68.30;;;;;;4987499;28;20053;-47
2021/12/21 08:24:42;;;;;;;8.00;6.05;;;0.00;68.30;;;;;;5005997;28;20040;-47
2021/12/21 08:27:09;;;;;;;7.53;5.30;;;0.00;68.40;;;;;;4993847;28;20096;-47
2021/12/21 08:29:36;;;;;;;7.88;4.55;;;0.00;68.50;;;;;;5000153;28;20046;-47
2021/12/21 08:32:03;;;;;;;7.85;4.70;;;0.00;68.60;;;;;;5014918;28;20042;-46
2021/12/21 08:34:30;;;;;;;6.82;4.90;;;0.00;68.70;;;;;;5006797;28;20247;-47
2021/12/21 08:36:57;;;;;;;8.90;4.78;;;0.10;68.70;;;;;;5009348;28;20584;-51
2021/12/21 08:39:24;;;;;;;8.85;5.57;;;0.10;68.70;;;;;;4996688;28;20080;-46
2021/12/21 08:41:57;;;;;;;10.38;5.53;;;0.10;68.80;;;;;;5002656;28;20038;-46
2021/12/21 08:44:25;;;;;;;9.10;5.25;;;0.10;68.80;;;;;;5001443;28;20529;-46
2021/12/21 08:46:52;;;;;;;8.20;5.45;;;0.20;68.80;;;;;;5008547;28;20037;-46
2021/12/21 08:49:19;;;;;;;6.03;4.75;;;0.20;68.90;;;;;;5002897;28;20038;-47
2021/12/21 08:51:46;;;;;;;11.38;5.03;;;0.20;68.90;;;;;;5012296;28;20058;-47
2021/12/21 08:54:13;;;;;;;8.30;5.10;;;0.20;69.00;;;;;;5002940;28;20061;-49
2021/12/21 08:56:40;;;;;;;7.13;4.60;;;0.20;69.00;;;;;;5001722;28;20053;-47
2021/12/21 08:59:07;;;;;;;9.30;5.18;;;0.30;69.00;;;;;;5002991;28;20053;-47
2021/12/21 09:01:34;;;;;;;8.15;5.32;;;0.30;69.00;;;;;;5019834;28;20037;-47
2021/12/21 09:04:01;;;;;;;9.05;5.35;;;0.30;69.00;;;;;;5004197;28;20092;-47
2021/12/21 09:06:30;;;;;;;10.23;6.10;;;0.30;69.10;;;;;;5004578;28;20563;-47
2021/12/21 09:08:56;;;;;;;8.27;5.75;;;0.40;69.20;;;;;;5003809;28;20121;-47
2021/12/21 09:11:23;;;;;;;8.45;6.10;;;0.40;69.30;;;;;;5018487;28;20030;-52
2021/12/21 09:13:50;;;;;;;11.60;7.43;;;0.40;69.30;;;;;;5000039;28;20107;-51
2021/12/21 09:16:17;;;;;;;11.82;6.55;;;0.50;69.40;;;;;;5006807;28;20100;-49
2021/12/21 09:18:47;;;;;;;14.13;7.57;;;0.40;69.40;;;;;;5002327;28;20060;-51
2021/12/21 09:21:14;;;;;;;10.98;6.60;;;0.50;69.50;;;;;;5017270;28;20505;-51
2021/12/21 09:23:41;;;;;;;13.40;7.05;;;0.60;70.20;;;;;;5003153;28;20448;-50
2021/12/21 09:26:13;;;;;;;11.15;6.65;;;0.60;69.60;;;;;;5008296;28;20049;-51
2021/12/21 09:28:40;;;;;;;11.32;6.63;;;0.60;69.60;;;;;;4999988;28;20046;-50
2021/12/21 09:31:07;;;;;;;10.02;6.30;;;0.60;69.60;;;;;;5005149;28;20112;-51
2021/12/21 09:33:34;;;;;;;11.02;7.05;;;0.70;69.70;;;;;;5010521;28;20037;-52
2021/12/21 09:36:00;;;;;;;11.88;6.88;;;0.70;69.80;;;;;;5008915;28;20107;-50
2021/12/21 09:38:27;;;;;;;9.77;6.68;;;0.70;69.80;;;;;;5016459;28;20041;-47
2021/12/21 09:40:55;;;;;;;10.70;6.43;;;0.80;69.90;;;;;;5018118;28;20095;-50
2021/12/21 09:43:22;;;;;;;10.88;7.13;;;0.80;69.90;;;;;;5022698;28;20545;-51
2021/12/21 09:45:50;;;;;;;8.52;5.75;;;0.90;70.00;;;;;;5015087;28;20033;-51
2021/12/21 09:48:19;;;;;;;11.05;6.50;;;0.90;70.00;;;;;;5025651;28;20432;-51
2021/12/21 09:50:46;;;;;;;11.38;6.22;;;0.90;70.00;;;;;;5012719;28;20451;-51
2021/12/21 09:53:13;;;;;;;11.63;8.68;;;1.00;70.10;;;;;;5009718;28;20484;-52
2021/12/21 09:55:43;;;;;;;9.10;6.20;;;1.00;70.10;;;;;;5011660;28;20045;-48
2021/12/21 09:58:10;;;;;;;9.75;6.50;;;1.00;70.10;;;;;;5023502;28;20042;-51
2021/12/21 10:00:37;;;;;;;11.48;6.68;;;1.10;70.20;;;;;;5037624;22;21171;-72
2021/12/21 10:03:07;;;;;;;10.45;7.03;;;1.10;70.20;;;;;;5029732;28;20037;-72
2021/12/21 10:05:37;;;;;;;8.63;6.07;;;1.10;70.30;;;;;;5027974;28;20137;-76
2021/12/21 10:08:12;;;;;;;8.20;5.68;;;1.20;70.40;;;;;;5012307;28;20069;-74
2021/12/21 10:10:41;;;;;;;8.07;6.18;;;1.20;70.40;;;;;;5002945;28;20317;-73
2021/12/21 10:13:16;;;;;;;8.43;5.45;;;1.20;70.30;;;;;;5024279;28;20052;-76
2021/12/21 10:15:46;;;;;;;7.88;5.35;;;1.30;70.70;;;;;;5027515;28;20405;-76
2021/12/21 10:18:21;;;;;;;6.82;5.30;;;1.30;70.70;;;;;;5020939;28;20508;-72
2021/12/21 10:20:48;;;;;;;8.43;4.72;;;1.30;70.60;;;;;;5033819;28;20045;-73
2021/12/21 10:23:22;;;;;;;10.30;5.15;;;1.40;70.70;;;;;;5005384;28;20041;-76
2021/12/21 10:26:01;;;;;;;7.50;5.80;;;1.40;70.90;;;;;;5012348;28;20046;-73
2021/12/21 10:28:31;;;;;;;8.63;5.90;;;1.50;71.00;;;;;;5011924;28;20038;-73
2021/12/21 10:31:01;;;;;;;8.02;5.20;;;1.50;70.90;;;;;;5025684;28;20532;-73
2021/12/21 10:33:29;;;;;;;7.00;4.75;;;1.50;70.90;;;;;;5025904;28;20056;-75
2021/12/21 10:35:59;;;;;;;10.02;5.78;;;1.60;71.00;;;;;;5029976;28;20057;-73
2021/12/21 10:38:34;;;;;;;9.60;6.50;;;1.60;71.10;;;;;;5011370;28;20343;-77
2021/12/21 10:41:17;;;;;;;8.20;5.97;;;1.70;71.30;;;;;;5026240;28;20041;-73
2021/12/21 10:43:56;;;;;;;12.07;6.30;;;1.70;71.60;;;;;;5026384;28;20509;-73
2021/12/21 10:46:30;;;;;;;6.38;4.47;;;1.80;71.60;;;;;;5037285;28;20043;-74
2021/12/21 10:49:19;;;;;;;7.25;5.25;;;1.80;71.40;;;;;;5024036;28;20037;-72
2021/12/21 10:51:53;;;;;;;8.82;5.60;;;1.80;71.70;;;;;;5016109;28;20030;-73
2021/12/21 10:54:32;;;;;;;9.77;5.55;;;1.90;71.50;;;;;;4996264;28;20409;-73
2021/12/21 10:57:26;;;;;;;6.70;5.28;;;1.90;71.60;;;;;;5028154;28;20052;-74
2021/12/21 10:59:57;;;;;;;9.50;5.45;;;1.90;71.90;;;;;;4997526;28;20119;-73
2021/12/21 11:02:29;;;;;;;8.60;5.32;;;2.00;71.50;;;;;;5021227;28;20547;-73
2021/12/21 11:05:12;;;;;;;7.43;4.43;;;2.00;71.50;;;;;;5028841;28;20598;-77
2021/12/21 11:07:46;;;;;;;8.98;4.97;;;2.10;71.60;;;;;;5019119;28;20045;-75
2021/12/21 11:10:20;;;;;;;7.00;4.68;;;2.10;71.60;;;;;;5026433;28;20506;-75
2021/12/21 11:13:13;;;;;;;7.68;4.18;;;2.20;71.70;;;;;;5021922;28;20041;-72
2021/12/21 11:15:41;;;;;;;6.35;4.30;;;2.20;71.70;;;;;;5020135;28;20078;-73
2021/12/21 11:18:14;;;;;;;8.27;3.78;;;2.30;71.90;;;;;;5018816;28;20052;-73
2021/12/21 11:20:43;;;;;;;11.68;5.25;;;2.30;72.00;;;;;;5024036;28;20386;-73
2021/12/21 11:23:15;;;;;;;8.10;4.47;;;2.30;72.00;;;;;;4992817;28;20067;-73
2021/12/21 11:25:46;;;;;;;6.07;3.85;;;2.40;72.10;;;;;;4995928;28;20072;-73
2021/12/21 11:28:19;;;;;;;8.82;4.78;;;2.40;72.00;;;;;;5020267;28;20117;-73
2021/12/21 11:30:47;;;;;;;8.48;4.95;;;2.50;72.00;;;;;;5005350;28;20401;-75
2021/12/21 11:33:17;;;;;;;8.77;4.68;;;2.50;72.00;;;;;;5028199;28;20095;-73
2021/12/21 11:38:13;;;;;;;10.95;4.53;;;2.60;72.00;;;;;;5003731;28;20529;-73
2021/12/21 11:40:45;;;;;;;12.85;5.82;;;2.60;72.00;;;;;;4993231;28;20072;-73
2021/12/21 11:43:18;;;;;;;;;;;2.70;72.00;;;;;;5044472;28;20094;-73
2021/12/21 11:46:05;;;;;;;12.18;4.40;;;2.70;72.40;;;;;;5013610;28;20075;-75
2021/12/21 11:49:11;;;;;;;11.73;4.93;;;2.80;71.80;;;;;;5006717;28;20513;-73
2021/12/21 11:51:38;;;;;;;7.75;5.05;;;2.80;71.70;;;;;;5018655;28;20053;-73
2021/12/21 11:54:19;;;;;;;9.95;5.93;;;2.80;71.60;;;;;;5011150;28;20095;-73
2021/12/21 11:56:46;;;;;;;10.32;4.55;;;2.80;71.70;;;;;;4995189;28;20102;-75
2021/12/21 11:59:21;;;;;;;10.85;4.45;;;2.90;71.70;;;;;;5036171;28;20055;-73
2021/12/21 12:01:49;;;;;;;10.82;4.80;;;2.90;71.70;;;;;;5046197;28;20053;-74
2021/12/21 12:04:16;;;;;;;7.30;4.43;;;2.90;71.70;;;;;;5028757;28;20045;-74
2021/12/21 12:06:49;;;;;;;7.85;4.40;;;3.00;71.80;;;;;;5005960;28;20044;-73
2021/12/21 12:09:31;;;;;;;9.07;4.28;;;3.00;71.80;;;;;;5034491;28;20044;-73
2021/12/21 12:12:19;;;;;;;7.97;4.93;;;3.10;71.90;;;;;;5029820;28;20043;-73
2021/12/21 12:14:47;;;;;;;7.00;3.95;;;3.10;71.90;;;;;;4999432;28;20052;-74
2021/12/21 12:17:22;;;;;;;9.68;5.32;;;3.10;71.60;;;;;;4993673;28;20053;-74
2021/12/21 12:19:53;;;;;;;6.93;3.80;;;3.20;71.60;;;;;;5009810;28;20038;-73
2021/12/21 12:22:32;;;;;;;8.50;3.30;;;3.20;71.60;;;;;;5005101;28;20060;-73
2021/12/21 12:25:00;;;;;;;4.47;3.38;;;3.20;71.60;;;;;;5021717;28;20041;-73
2021/12/21 12:27:29;;;;;;;6.22;4.15;;;3.20;71.50;;;;;;5010328;28;20037;-73
2021/12/21 12:30:12;;;;;;;6.20;3.90;;;3.30;71.50;;;;;;5007999;28;20038;-76
2021/12/21 12:32:47;;;;;;;5.53;3.55;;;3.40;71.30;;;;;;4985782;28;20038;-73
2021/12/21 12:35:24;;;;;;;7.72;3.47;;;3.40;72.00;;;;;;4991594;28;20282;-73
2021/12/21 12:38:01;;;;;;;6.65;3.60;;;3.40;71.20;;;;;;5007576;28;20051;-73
2021/12/21 12:40:43;;;;;;;6.38;2.90;;;3.40;71.20;;;;;;5012040;28;20041;-74
2021/12/21 12:43:17;;;;;;;6.90;2.85;;;3.50;71.10;;;;;;5003037;28;20338;-73
2021/12/21 12:45:50;;;;;;;8.35;3.33;;;3.50;71.10;;;;;;5021830;28;20037;-73
2021/12/21 12:48:37;;;;;;;5.45;2.90;;;3.50;70.90;;;;;;5018874;28;20048;-73
2021/12/21 12:51:07;;;;;;;5.57;3.45;;;3.60;70.70;;;;;;5027050;28;20048;-75
2021/12/21 12:53:42;;;;;;;4.78;2.88;;;3.60;70.70;;;;;;5005559;28;20073;-73
2021/12/21 12:56:12;;;;;;;6.88;2.92;;;3.60;70.50;;;;;;5030250;28;20048;-77
2021/12/21 12:58:49;;;;;;;8.55;3.40;;;3.70;70.60;;;;;;5051410;28;20071;-73
2021/12/21 13:01:27;;;;;;;5.72;3.38;;;3.70;70.50;;;;;;5035553;28;20045;-76
2021/12/21 13:03:58;;;;;;;4.18;2.60;;;3.70;70.50;;;;;;5004759;28;20037;-73
2021/12/21 13:06:32;;;;;;;7.43;3.78;;;3.80;70.50;;;;;;5016334;28;20567;-73
2021/12/21 13:08:59;;;;;;;10.30;2.88;;;3.80;70.40;;;;;;5031268;28;20045;-73
2021/12/21 13:11:29;;;;;;;5.75;2.70;;;3.80;70.40;;;;;;5011916;28;20034;-73
2021/12/21 13:14:00;;;;;;;10.63;3.00;;;3.80;70.30;;;;;;5025731;28;20493;-73
2021/12/21 13:16:31;;;;;;;7.72;3.42;;;3.90;70.30;;;;;;5011224;28;20137;-77
2021/12/21 13:19:10;;;;;;;6.22;3.42;;;3.90;70.30;;;;;;5013687;28;20043;-74
2021/12/21 13:21:57;;;;;;;8.60;4.13;;;3.90;70.30;;;;;;5010319;28;20049;-73
2021/12/21 13:24:33;;;;;;;5.93;3.95;;;3.90;70.20;;;;;;5025070;28;20057;-75
2021/12/21 13:27:03;;;;;;;5.97;2.92;;;3.90;70.30;;;;;;4995721;28;20406;-73
2021/12/21 13:29:34;;;;;;;6.22;3.25;;;4.00;70.40;;;;;;5008033;28;20096;-73
2021/12/21 13:32:05;;;;;;;4.45;2.75;;;4.00;70.40;;;;;;5011220;28;20068;-73
2021/12/21 13:34:32;;;;;;;6.35;3.10;;;4.00;70.40;;;;;;5023611;28;20049;-73
2021/12/21 13:37:02;;;;;;;6.55;2.80;;;4.00;70.30;;;;;;5022151;28;20433;-73
2021/12/21 13:39:35;;;;;;;6.13;2.72;;;4.00;70.10;;;;;;5029854;28;20042;-74
2021/12/21 13:42:06;;;;;;;8.57;3.42;;;4.10;70.10;;;;;;5025781;28;20042;-73
2021/12/21 13:44:38;;;;;;;;;;;4.10;70.10;;;;;;5029717;28;20038;-74
2021/12/21 13:47:27;;;;;;;6.68;2.55;;;4.10;70.00;;;;;;5029824;28;19928;-74
2021/12/21 13:50:04;;;;;;;5.70;2.53;;;4.10;69.80;;;;;;5023468;28;20445;-75
2021/12/21 13:52:36;;;;;;;5.40;2.92;;;4.20;70.00;;;;;;5029316;28;20523;-73
2021/12/21 13:55:05;;;;;;;6.25;2.88;;;4.20;69.90;;;;;;5009771;28;20053;-77
2021/12/21 13:57:33;;;;;;;5.85;3.40;;;4.10;69.90;;;;;;5014533;28;20049;-74
2021/12/21 14:00:07;;;;;;;6.50;3.25;;;4.10;70.00;;;;;;5015816;28;20049;-74
2021/12/21 14:02:37;;;;;;;8.65;3.65;;;4.10;70.00;;;;;;5032089;28;20107;-73
2021/12/21 14:05:07;;;;;;;6.65;3.63;;;4.20;70.10;;;;;;5015069;28;20049;-75
2021/12/21 14:07:38;;;;;;;5.13;2.78;;;4.10;70.00;;;;;;5009759;28;20091;-73
2021/12/21 14:10:17;;;;;;;6.30;3.13;;;4.20;70.10;;;;;;5015480;28;20520;-73
2021/12/21 14:13:01;;;;;;;7.38;3.88;;;4.20;70.10;;;;;;5030016;28;20092;-73
2021/12/21 14:15:41;;;;;;;8.95;3.55;;;4.20;70.00;;;;;;4990293;28;20726;-76
2021/12/21 14:18:31;;;;;;;6.78;3.30;;;4.20;69.90;;;;;;5054257;22;20131;-47